sensor_id;sensor_type;location;lat;lon;timestamp;P1;durP1;ratioP1;P2;durP2;ratioP2
73515;SDS011;61763;51.416;5.442;2023-04-01T00:01:55;2.53;;;0.82;;
73515;SDS011;61763;51.416;5.442;2023-04-01T00:04:20;5.30;;;0.40;;
73515;SDS011;61763;51.416;5.442;2023-04-01T00:06:47;4.03;;;0.60;;
73515;SDS011;61763;51.416;5.442;2023-04-01T00:09:12;7.03;;;0.85;;
73515;SDS011;61763;51.416;5.442;2023-04-01T00:11:38;4.20;;;0.52;;
73515;SDS011;61763;51.416;5.442;2023-04-01T00:14:04;7.05;;;0.68;;
73515;SDS011;61763;51.416;5.442;2023-04-01T00:16:32;3.92;;;0.60;;
73515;SDS011;61763;51.416;5.442;2023-04-01T00:18:58;3.70;;;0.25;;
73515;SDS011;61763;51.416;5.442;2023-04-01T00:21:24;4.78;;;0.70;;
73515;SDS011;61763;51.416;5.442;2023-04-01T00:23:50;2.92;;;0.40;;
73515;SDS011;61763;51.416;5.442;2023-04-01T00:26:16;4.28;;;0.63;;
73515;SDS011;61763;51.416;5.442;2023-04-01T00:28:44;1.27;;;0.20;;
73515;SDS011;61763;51.416;5.442;2023-04-01T00:31:11;7.10;;;0.65;;
73515;SDS011;61763;51.416;5.442;2023-04-01T00:33:37;5.30;;;0.32;;
73515;SDS011;61763;51.416;5.442;2023-04-01T00:36:10;1.50;;;0.43;;
73515;SDS011;61763;51.416;5.442;2023-04-01T00:38:40;3.20;;;0.35;;
73515;SDS011;61763;51.416;5.442;2023-04-01T00:41:07;5.57;;;0.68;;
73515;SDS011;61763;51.416;5.442;2023-04-01T00:43:33;1.15;;;0.10;;
73515;SDS011;61763;51.416;5.442;2023-04-01T00:45:59;2.55;;;0.30;;
73515;SDS011;61763;51.416;5.442;2023-04-01T00:48:30;4.88;;;0.50;;
73515;SDS011;61763;51.416;5.442;2023-04-01T00:51:03;3.13;;;0.47;;
73515;SDS011;61763;51.416;5.442;2023-04-01T00:53:31;2.15;;;0.20;;
73515;SDS011;61763;51.416;5.442;2023-04-01T00:58:46;2.38;;;0.40;;
73515;SDS011;61763;51.416;5.442;2023-04-01T01:01:17;1.92;;;1.00;;
73515;SDS011;61763;51.416;5.442;2023-04-01T01:03:43;3.08;;;0.43;;
73515;SDS011;61763;51.416;5.442;2023-04-01T01:09:20;4.25;;;0.25;;
73515;SDS011;61763;51.416;5.442;2023-04-01T01:12:01;3.63;;;0.52;;
73515;SDS011;61763;51.416;5.442;2023-04-01T01:29:13;2.80;;;0.65;;
73515;SDS011;61763;51.416;5.442;2023-04-01T01:34:28;2.78;;;0.25;;
73515;SDS011;61763;51.416;5.442;2023-04-01T01:37:21;1.83;;;0.50;;
73515;SDS011;61763;51.416;5.442;2023-04-01T01:39:54;3.13;;;0.77;;
73515;SDS011;61763;51.416;5.442;2023-04-01T01:42:23;2.90;;;1.33;;
73515;SDS011;61763;51.416;5.442;2023-04-01T01:44:51;2.72;;;0.73;;
73515;SDS011;61763;51.416;5.442;2023-04-01T01:47:18;2.33;;;0.80;;
73515;SDS011;61763;51.416;5.442;2023-04-01T01:49:47;2.95;;;0.73;;
73515;SDS011;61763;51.416;5.442;2023-04-01T01:52:16;2.28;;;0.55;;
73515;SDS011;61763;51.416;5.442;2023-04-01T01:54:49;5.45;;;0.98;;
73515;SDS011;61763;51.416;5.442;2023-04-01T01:57:15;8.05;;;1.13;;
73515;SDS011;61763;51.416;5.442;2023-04-01T01:59:44;2.30;;;0.68;;
73515;SDS011;61763;51.416;5.442;2023-04-01T02:02:13;3.78;;;1.38;;
73515;SDS011;61763;51.416;5.442;2023-04-01T02:04:40;4.63;;;1.63;;
73515;SDS011;61763;51.416;5.442;2023-04-01T02:07:14;3.75;;;1.60;;
73515;SDS011;61763;51.416;5.442;2023-04-01T02:09:47;6.82;;;2.30;;
73515;SDS011;61763;51.416;5.442;2023-04-01T02:12:13;5.63;;;2.17;;
73515;SDS011;61763;51.416;5.442;2023-04-01T02:15:15;6.50;;;2.03;;
73515;SDS011;61763;51.416;5.442;2023-04-01T02:17:36;3.65;;;1.63;;
73515;SDS011;61763;51.416;5.442;2023-04-01T02:20:19;4.80;;;1.67;;
73515;SDS011;61763;51.416;5.442;2023-04-01T02:22:48;4.45;;;1.88;;
73515;SDS011;61763;51.416;5.442;2023-04-01T02:25:18;6.75;;;2.53;;
73515;SDS011;61763;51.416;5.442;2023-04-01T02:27:47;6.25;;;2.67;;
73515;SDS011;61763;51.416;5.442;2023-04-01T02:30:14;6.55;;;2.45;;
73515;SDS011;61763;51.416;5.442;2023-04-01T02:32:42;7.10;;;3.13;;
73515;SDS011;61763;51.416;5.442;2023-04-01T02:35:08;6.22;;;2.95;;
73515;SDS011;61763;51.416;5.442;2023-04-01T02:37:36;8.30;;;3.03;;
73515;SDS011;61763;51.416;5.442;2023-04-01T02:40:03;9.02;;;2.83;;
73515;SDS011;61763;51.416;5.442;2023-04-01T02:42:31;8.07;;;3.28;;
73515;SDS011;61763;51.416;5.442;2023-04-01T02:44:57;8.10;;;2.75;;
73515;SDS011;61763;51.416;5.442;2023-04-01T02:47:22;6.45;;;3.03;;
73515;SDS011;61763;51.416;5.442;2023-04-01T02:49:48;8.00;;;2.97;;
73515;SDS011;61763;51.416;5.442;2023-04-01T02:52:15;8.85;;;3.25;;
73515;SDS011;61763;51.416;5.442;2023-04-01T02:54:40;7.97;;;2.15;;
73515;SDS011;61763;51.416;5.442;2023-04-01T02:57:08;11.68;;;3.15;;
73515;SDS011;61763;51.416;5.442;2023-04-01T02:59:33;10.00;;;3.58;;
73515;SDS011;61763;51.416;5.442;2023-04-01T03:01:59;9.40;;;3.38;;
73515;SDS011;61763;51.416;5.442;2023-04-01T03:04:24;7.93;;;3.08;;
73515;SDS011;61763;51.416;5.442;2023-04-01T03:06:50;8.52;;;3.70;;
73515;SDS011;61763;51.416;5.442;2023-04-01T03:09:17;8.73;;;3.83;;
73515;SDS011;61763;51.416;5.442;2023-04-01T03:11:42;9.05;;;4.43;;
73515;SDS011;61763;51.416;5.442;2023-04-01T03:14:08;9.23;;;3.60;;
73515;SDS011;61763;51.416;5.442;2023-04-01T03:16:33;8.93;;;3.85;;
73515;SDS011;61763;51.416;5.442;2023-04-01T03:18:58;9.50;;;4.50;;
73515;SDS011;61763;51.416;5.442;2023-04-01T03:21:26;7.72;;;3.60;;
73515;SDS011;61763;51.416;5.442;2023-04-01T03:23:52;9.35;;;3.40;;
73515;SDS011;61763;51.416;5.442;2023-04-01T03:26:18;11.80;;;4.90;;
73515;SDS011;61763;51.416;5.442;2023-04-01T03:28:44;9.77;;;4.40;;
73515;SDS011;61763;51.416;5.442;2023-04-01T03:31:09;6.47;;;3.15;;
73515;SDS011;61763;51.416;5.442;2023-04-01T03:33:35;10.38;;;3.95;;
73515;SDS011;61763;51.416;5.442;2023-04-01T03:36:01;8.88;;;3.65;;
73515;SDS011;61763;51.416;5.442;2023-04-01T03:38:26;9.50;;;3.95;;
73515;SDS011;61763;51.416;5.442;2023-04-01T03:40:51;7.90;;;4.15;;
73515;SDS011;61763;51.416;5.442;2023-04-01T03:43:17;8.35;;;4.07;;
73515;SDS011;61763;51.416;5.442;2023-04-01T03:45:43;8.90;;;4.15;;
73515;SDS011;61763;51.416;5.442;2023-04-01T03:48:09;9.93;;;4.60;;
73515;SDS011;61763;51.416;5.442;2023-04-01T03:50:35;10.10;;;4.45;;
73515;SDS011;61763;51.416;5.442;2023-04-01T03:53:00;10.82;;;4.35;;
73515;SDS011;61763;51.416;5.442;2023-04-01T03:55:26;8.60;;;4.38;;
73515;SDS011;61763;51.416;5.442;2023-04-01T03:57:51;10.48;;;4.47;;
73515;SDS011;61763;51.416;5.442;2023-04-01T04:00:16;9.85;;;4.50;;
73515;SDS011;61763;51.416;5.442;2023-04-01T04:02:42;8.07;;;3.70;;
73515;SDS011;61763;51.416;5.442;2023-04-01T04:05:07;9.88;;;3.80;;
73515;SDS011;61763;51.416;5.442;2023-04-01T04:07:34;8.50;;;3.88;;
73515;SDS011;61763;51.416;5.442;2023-04-01T04:12:26;8.82;;;4.03;;
73515;SDS011;61763;51.416;5.442;2023-04-01T04:14:51;9.43;;;4.00;;
73515;SDS011;61763;51.416;5.442;2023-04-01T04:17:18;10.25;;;4.53;;
73515;SDS011;61763;51.416;5.442;2023-04-01T04:19:43;13.07;;;4.93;;
73515;SDS011;61763;51.416;5.442;2023-04-01T04:22:08;12.65;;;5.68;;
73515;SDS011;61763;51.416;5.442;2023-04-01T04:24:34;14.73;;;5.68;;
73515;SDS011;61763;51.416;5.442;2023-04-01T04:27:00;11.48;;;5.68;;
73515;SDS011;61763;51.416;5.442;2023-04-01T04:29:26;16.98;;;5.97;;
73515;SDS011;61763;51.416;5.442;2023-04-01T04:31:51;14.13;;;5.18;;
73515;SDS011;61763;51.416;5.442;2023-04-01T04:34:16;14.20;;;5.10;;
73515;SDS011;61763;51.416;5.442;2023-04-01T04:36:43;9.25;;;2.72;;
73515;SDS011;61763;51.416;5.442;2023-04-01T04:39:09;11.70;;;4.55;;
73515;SDS011;61763;51.416;5.442;2023-04-01T04:41:36;12.82;;;5.35;;
73515;SDS011;61763;51.416;5.442;2023-04-01T04:44:02;11.07;;;4.88;;
73515;SDS011;61763;51.416;5.442;2023-04-01T04:46:28;12.52;;;5.15;;
73515;SDS011;61763;51.416;5.442;2023-04-01T04:48:53;17.02;;;5.22;;
73515;SDS011;61763;51.416;5.442;2023-04-01T04:51:19;11.82;;;4.47;;
73515;SDS011;61763;51.416;5.442;2023-04-01T04:53:46;12.57;;;5.32;;
73515;SDS011;61763;51.416;5.442;2023-04-01T04:56:12;12.27;;;5.10;;
73515;SDS011;61763;51.416;5.442;2023-04-01T04:58:38;12.10;;;4.43;;
73515;SDS011;61763;51.416;5.442;2023-04-01T05:01:06;9.65;;;3.78;;
73515;SDS011;61763;51.416;5.442;2023-04-01T05:03:35;9.98;;;4.57;;
73515;SDS011;61763;51.416;5.442;2023-04-01T05:06:01;10.48;;;4.57;;
73515;SDS011;61763;51.416;5.442;2023-04-01T05:08:27;8.80;;;3.78;;
73515;SDS011;61763;51.416;5.442;2023-04-01T05:10:53;10.18;;;3.97;;
73515;SDS011;61763;51.416;5.442;2023-04-01T05:13:18;10.57;;;3.15;;
73515;SDS011;61763;51.416;5.442;2023-04-01T05:15:43;9.27;;;3.85;;
73515;SDS011;61763;51.416;5.442;2023-04-01T05:18:09;9.05;;;3.70;;
73515;SDS011;61763;51.416;5.442;2023-04-01T05:20:34;9.10;;;3.83;;
73515;SDS011;61763;51.416;5.442;2023-04-01T05:23:00;11.15;;;4.13;;
73515;SDS011;61763;51.416;5.442;2023-04-01T05:25:25;10.25;;;3.60;;
73515;SDS011;61763;51.416;5.442;2023-04-01T05:27:51;9.82;;;3.78;;
73515;SDS011;61763;51.416;5.442;2023-04-01T05:30:17;8.52;;;3.35;;
73515;SDS011;61763;51.416;5.442;2023-04-01T05:32:44;8.35;;;3.58;;
73515;SDS011;61763;51.416;5.442;2023-04-01T05:35:09;8.18;;;2.63;;
73515;SDS011;61763;51.416;5.442;2023-04-01T05:37:35;6.60;;;2.22;;
73515;SDS011;61763;51.416;5.442;2023-04-01T05:40:01;6.57;;;2.70;;
73515;SDS011;61763;51.416;5.442;2023-04-01T05:42:27;4.70;;;2.00;;
73515;SDS011;61763;51.416;5.442;2023-04-01T05:44:53;7.95;;;2.60;;
73515;SDS011;61763;51.416;5.442;2023-04-01T05:47:18;4.82;;;1.70;;
73515;SDS011;61763;51.416;5.442;2023-04-01T05:49:43;7.78;;;2.42;;
73515;SDS011;61763;51.416;5.442;2023-04-01T05:52:09;5.20;;;1.50;;
73515;SDS011;61763;51.416;5.442;2023-04-01T05:54:34;5.25;;;2.08;;
73515;SDS011;61763;51.416;5.442;2023-04-01T05:57:00;7.70;;;2.40;;
73515;SDS011;61763;51.416;5.442;2023-04-01T05:59:25;6.65;;;2.40;;
73515;SDS011;61763;51.416;5.442;2023-04-01T06:01:51;7.32;;;2.60;;
73515;SDS011;61763;51.416;5.442;2023-04-01T06:04:17;6.22;;;2.15;;
73515;SDS011;61763;51.416;5.442;2023-04-01T06:06:43;5.60;;;1.80;;
73515;SDS011;61763;51.416;5.442;2023-04-01T06:09:28;6.80;;;2.00;;
73515;SDS011;61763;51.416;5.442;2023-04-01T06:14:54;8.85;;;2.33;;
73515;SDS011;61763;51.416;5.442;2023-04-01T06:23:10;5.75;;;1.80;;
73515;SDS011;61763;51.416;5.442;2023-04-01T06:39:33;6.72;;;2.42;;
73515;SDS011;61763;51.416;5.442;2023-04-01T06:53:13;6.85;;;2.28;;
73515;SDS011;61763;51.416;5.442;2023-04-01T06:55:46;6.40;;;2.42;;
73515;SDS011;61763;51.416;5.442;2023-04-01T06:58:29;5.88;;;1.65;;
73515;SDS011;61763;51.416;5.442;2023-04-01T07:01:03;7.32;;;2.58;;
73515;SDS011;61763;51.416;5.442;2023-04-01T07:03:33;6.13;;;1.75;;
73515;SDS011;61763;51.416;5.442;2023-04-01T07:06:04;5.80;;;2.10;;
73515;SDS011;61763;51.416;5.442;2023-04-01T07:08:33;6.88;;;2.75;;
73515;SDS011;61763;51.416;5.442;2023-04-01T07:11:04;7.60;;;2.97;;
73515;SDS011;61763;51.416;5.442;2023-04-01T07:13:32;8.70;;;3.25;;
73515;SDS011;61763;51.416;5.442;2023-04-01T07:16:25;8.00;;;2.90;;
73515;SDS011;61763;51.416;5.442;2023-04-01T07:18:57;7.90;;;2.72;;
73515;SDS011;61763;51.416;5.442;2023-04-01T07:24:05;13.35;;;4.15;;
73515;SDS011;61763;51.416;5.442;2023-04-01T07:26:36;10.05;;;3.83;;
73515;SDS011;61763;51.416;5.442;2023-04-01T07:29:05;10.73;;;4.30;;
73515;SDS011;61763;51.416;5.442;2023-04-01T07:34:46;15.00;;;5.25;;
73515;SDS011;61763;51.416;5.442;2023-04-01T07:42:49;17.90;;;5.68;;
73515;SDS011;61763;51.416;5.442;2023-04-01T07:50:41;14.68;;;6.55;;
73515;SDS011;61763;51.416;5.442;2023-04-01T08:09:25;24.13;;;9.07;;
73515;SDS011;61763;51.416;5.442;2023-04-01T08:12:04;23.05;;;8.65;;
73515;SDS011;61763;51.416;5.442;2023-04-01T08:25:37;24.50;;;9.30;;
73515;SDS011;61763;51.416;5.442;2023-04-01T08:28:20;22.92;;;8.95;;
73515;SDS011;61763;51.416;5.442;2023-04-01T08:31:30;22.35;;;8.95;;
73515;SDS011;61763;51.416;5.442;2023-04-01T08:33:57;19.48;;;8.48;;
73515;SDS011;61763;51.416;5.442;2023-04-01T08:36:25;19.15;;;7.82;;
73515;SDS011;61763;51.416;5.442;2023-04-01T08:41:38;20.60;;;8.63;;
73515;SDS011;61763;51.416;5.442;2023-04-01T08:53:18;13.23;;;6.68;;
73515;SDS011;61763;51.416;5.442;2023-04-01T08:59:13;13.93;;;6.18;;
73515;SDS011;61763;51.416;5.442;2023-04-01T09:02:14;12.23;;;5.03;;
73515;SDS011;61763;51.416;5.442;2023-04-01T09:13:14;10.85;;;5.22;;
73515;SDS011;61763;51.416;5.442;2023-04-01T09:16:04;11.45;;;4.72;;
73515;SDS011;61763;51.416;5.442;2023-04-01T09:33:08;7.95;;;3.67;;
73515;SDS011;61763;51.416;5.442;2023-04-01T09:36:07;10.02;;;3.80;;
73515;SDS011;61763;51.416;5.442;2023-04-01T09:38:56;8.73;;;3.90;;
73515;SDS011;61763;51.416;5.442;2023-04-01T09:41:36;8.80;;;4.57;;
73515;SDS011;61763;51.416;5.442;2023-04-01T09:44:22;9.75;;;4.18;;
73515;SDS011;61763;51.416;5.442;2023-04-01T09:52:35;6.15;;;3.05;;
73515;SDS011;61763;51.416;5.442;2023-04-01T09:57:56;8.45;;;3.25;;
73515;SDS011;61763;51.416;5.442;2023-04-01T10:11:43;7.38;;;3.25;;
73515;SDS011;61763;51.416;5.442;2023-04-01T10:32:17;8.05;;;4.38;;
73515;SDS011;61763;51.416;5.442;2023-04-01T10:55:10;8.63;;;4.57;;
73515;SDS011;61763;51.416;5.442;2023-04-01T11:15:37;6.32;;;2.80;;
73515;SDS011;61763;51.416;5.442;2023-04-01T11:45:46;7.00;;;2.83;;
73515;SDS011;61763;51.416;5.442;2023-04-01T12:05:36;7.38;;;3.10;;
73515;SDS011;61763;51.416;5.442;2023-04-01T12:10:38;4.85;;;2.28;;
73515;SDS011;61763;51.416;5.442;2023-04-01T12:15:57;5.28;;;2.22;;
73515;SDS011;61763;51.416;5.442;2023-04-01T12:21:35;5.13;;;1.63;;
73515;SDS011;61763;51.416;5.442;2023-04-01T12:36:03;3.67;;;1.40;;
73515;SDS011;61763;51.416;5.442;2023-04-01T12:41:45;5.43;;;2.13;;
73515;SDS011;61763;51.416;5.442;2023-04-01T12:44:23;5.60;;;2.45;;
73515;SDS011;61763;51.416;5.442;2023-04-01T13:01:10;5.47;;;2.10;;
73515;SDS011;61763;51.416;5.442;2023-04-01T13:11:51;5.80;;;2.60;;
73515;SDS011;61763;51.416;5.442;2023-04-01T13:14:28;7.55;;;2.60;;
73515;SDS011;61763;51.416;5.442;2023-04-01T13:20:07;6.60;;;3.47;;
73515;SDS011;61763;51.416;5.442;2023-04-01T13:23:07;5.97;;;2.78;;
73515;SDS011;61763;51.416;5.442;2023-04-01T13:28:42;7.20;;;2.90;;
73515;SDS011;61763;51.416;5.442;2023-04-01T13:31:19;6.85;;;2.80;;
73515;SDS011;61763;51.416;5.442;2023-04-01T13:34:13;7.63;;;2.95;;
73515;SDS011;61763;51.416;5.442;2023-04-01T13:36:48;6.75;;;3.05;;
73515;SDS011;61763;51.416;5.442;2023-04-01T13:44:51;5.85;;;2.45;;
73515;SDS011;61763;51.416;5.442;2023-04-01T13:58:42;8.63;;;2.88;;
73515;SDS011;61763;51.416;5.442;2023-04-01T14:04:17;9.40;;;3.50;;
73515;SDS011;61763;51.416;5.442;2023-04-01T14:07:04;9.95;;;3.67;;
73515;SDS011;61763;51.416;5.442;2023-04-01T14:20:41;7.93;;;2.70;;
73515;SDS011;61763;51.416;5.442;2023-04-01T14:29:01;8.73;;;2.85;;
73515;SDS011;61763;51.416;5.442;2023-04-01T14:47:47;5.28;;;2.13;;
73515;SDS011;61763;51.416;5.442;2023-04-01T14:50:24;4.00;;;2.08;;
73515;SDS011;61763;51.416;5.442;2023-04-01T14:52:57;5.05;;;2.00;;
73515;SDS011;61763;51.416;5.442;2023-04-01T14:58:16;6.18;;;2.20;;
73515;SDS011;61763;51.416;5.442;2023-04-01T15:03:14;5.57;;;2.40;;
73515;SDS011;61763;51.416;5.442;2023-04-01T15:05:52;4.15;;;1.67;;
73515;SDS011;61763;51.416;5.442;2023-04-01T15:08:29;5.78;;;2.33;;
73515;SDS011;61763;51.416;5.442;2023-04-01T15:17:15;4.78;;;2.05;;
73515;SDS011;61763;51.416;5.442;2023-04-01T15:47:46;7.90;;;2.97;;
73515;SDS011;61763;51.416;5.442;2023-04-01T15:53:16;6.60;;;3.22;;
73515;SDS011;61763;51.416;5.442;2023-04-01T15:56:07;8.90;;;3.42;;
73515;SDS011;61763;51.416;5.442;2023-04-01T15:58:59;7.60;;;3.00;;
73515;SDS011;61763;51.416;5.442;2023-04-01T16:01:44;7.00;;;3.05;;
73515;SDS011;61763;51.416;5.442;2023-04-01T16:07:02;7.13;;;2.40;;
73515;SDS011;61763;51.416;5.442;2023-04-01T16:16:13;5.30;;;2.78;;
73515;SDS011;61763;51.416;5.442;2023-04-01T16:21:43;6.60;;;2.75;;
73515;SDS011;61763;51.416;5.442;2023-04-01T16:32:53;5.72;;;2.80;;
73515;SDS011;61763;51.416;5.442;2023-04-01T16:35:44;6.28;;;3.13;;
73515;SDS011;61763;51.416;5.442;2023-04-01T16:41:30;7.22;;;3.28;;
73515;SDS011;61763;51.416;5.442;2023-04-01T16:44:12;6.63;;;3.40;;
73515;SDS011;61763;51.416;5.442;2023-04-01T16:46:46;7.07;;;3.40;;
73515;SDS011;61763;51.416;5.442;2023-04-01T16:51:53;10.40;;;3.70;;
73515;SDS011;61763;51.416;5.442;2023-04-01T16:54:39;8.05;;;3.75;;
73515;SDS011;61763;51.416;5.442;2023-04-01T16:59:44;9.32;;;3.92;;
73515;SDS011;61763;51.416;5.442;2023-04-01T17:02:30;10.90;;;4.30;;
73515;SDS011;61763;51.416;5.442;2023-04-01T17:18:54;12.70;;;5.80;;
73515;SDS011;61763;51.416;5.442;2023-04-01T17:24:25;14.93;;;5.43;;
73515;SDS011;61763;51.416;5.442;2023-04-01T17:29:46;14.02;;;6.57;;
73515;SDS011;61763;51.416;5.442;2023-04-01T17:46:50;12.77;;;5.65;;
73515;SDS011;61763;51.416;5.442;2023-04-01T17:49:36;14.60;;;5.50;;
73515;SDS011;61763;51.416;5.442;2023-04-01T17:52:19;15.07;;;6.10;;
73515;SDS011;61763;51.416;5.442;2023-04-01T18:09:05;11.85;;;5.35;;
73515;SDS011;61763;51.416;5.442;2023-04-01T18:11:35;13.07;;;4.30;;
73515;SDS011;61763;51.416;5.442;2023-04-01T18:22:58;11.70;;;4.90;;
73515;SDS011;61763;51.416;5.442;2023-04-01T18:30:59;9.10;;;3.80;;
73515;SDS011;61763;51.416;5.442;2023-04-01T18:42:03;11.32;;;4.75;;
73515;SDS011;61763;51.416;5.442;2023-04-01T18:44:50;9.82;;;4.18;;
73515;SDS011;61763;51.416;5.442;2023-04-01T18:52:46;9.77;;;4.63;;
73515;SDS011;61763;51.416;5.442;2023-04-01T18:55:29;9.68;;;3.67;;
73515;SDS011;61763;51.416;5.442;2023-04-01T18:58:18;8.98;;;3.90;;
73515;SDS011;61763;51.416;5.442;2023-04-01T19:00:51;10.13;;;4.65;;
73515;SDS011;61763;51.416;5.442;2023-04-01T19:06:32;9.00;;;4.28;;
73515;SDS011;61763;51.416;5.442;2023-04-01T19:09:15;8.20;;;4.03;;
73515;SDS011;61763;51.416;5.442;2023-04-01T19:17:24;8.40;;;3.97;;
73515;SDS011;61763;51.416;5.442;2023-04-01T19:20:30;8.35;;;4.15;;
73515;SDS011;61763;51.416;5.442;2023-04-01T19:26:23;13.23;;;6.07;;
73515;SDS011;61763;51.416;5.442;2023-04-01T19:37:45;11.02;;;4.60;;
73515;SDS011;61763;51.416;5.442;2023-04-01T19:40:45;9.88;;;5.03;;
73515;SDS011;61763;51.416;5.442;2023-04-01T19:57:24;13.35;;;5.78;;
73515;SDS011;61763;51.416;5.442;2023-04-01T20:00:01;14.73;;;6.53;;
73515;SDS011;61763;51.416;5.442;2023-04-01T20:07:53;14.43;;;7.00;;
73515;SDS011;61763;51.416;5.442;2023-04-01T20:10:30;15.07;;;6.25;;
73515;SDS011;61763;51.416;5.442;2023-04-01T20:13:06;14.55;;;6.93;;
73515;SDS011;61763;51.416;5.442;2023-04-01T20:15:39;13.35;;;5.82;;
73515;SDS011;61763;51.416;5.442;2023-04-01T20:18:15;13.00;;;6.18;;
73515;SDS011;61763;51.416;5.442;2023-04-01T20:21:03;13.25;;;5.65;;
73515;SDS011;61763;51.416;5.442;2023-04-01T20:23:42;12.77;;;6.30;;
73515;SDS011;61763;51.416;5.442;2023-04-01T20:26:13;11.10;;;4.95;;
73515;SDS011;61763;51.416;5.442;2023-04-01T20:28:44;14.05;;;5.80;;
73515;SDS011;61763;51.416;5.442;2023-04-01T20:47:40;10.25;;;4.32;;
73515;SDS011;61763;51.416;5.442;2023-04-01T21:03:51;11.35;;;4.55;;
73515;SDS011;61763;51.416;5.442;2023-04-01T21:17:48;13.25;;;5.43;;
73515;SDS011;61763;51.416;5.442;2023-04-01T21:27:05;11.15;;;4.15;;
73515;SDS011;61763;51.416;5.442;2023-04-01T21:40:42;9.90;;;4.38;;
73515;SDS011;61763;51.416;5.442;2023-04-01T21:49:17;11.45;;;5.00;;
73515;SDS011;61763;51.416;5.442;2023-04-01T22:10:03;12.13;;;5.72;;
73515;SDS011;61763;51.416;5.442;2023-04-01T22:19:06;11.88;;;5.15;;
73515;SDS011;61763;51.416;5.442;2023-04-01T22:21:44;13.05;;;5.78;;
73515;SDS011;61763;51.416;5.442;2023-04-01T22:32:46;15.35;;;5.43;;
73515;SDS011;61763;51.416;5.442;2023-04-01T22:43:11;16.05;;;6.25;;
73515;SDS011;61763;51.416;5.442;2023-04-01T22:49:06;15.48;;;5.97;;
73515;SDS011;61763;51.416;5.442;2023-04-01T22:57:11;20.70;;;8.98;;
73515;SDS011;61763;51.416;5.442;2023-04-01T22:59:52;18.80;;;8.35;;
73515;SDS011;61763;51.416;5.442;2023-04-01T23:02:34;20.25;;;8.90;;
73515;SDS011;61763;51.416;5.442;2023-04-01T23:05:04;19.70;;;7.95;;
73515;SDS011;61763;51.416;5.442;2023-04-01T23:10:19;16.70;;;6.70;;
73515;SDS011;61763;51.416;5.442;2023-04-01T23:12:53;14.80;;;7.47;;
73515;SDS011;61763;51.416;5.442;2023-04-01T23:15:22;16.67;;;7.43;;
73515;SDS011;61763;51.416;5.442;2023-04-01T23:17:55;15.75;;;7.63;;
73515;SDS011;61763;51.416;5.442;2023-04-01T23:27:01;15.57;;;6.97;;
73515;SDS011;61763;51.416;5.442;2023-04-01T23:29:36;14.40;;;5.75;;
73515;SDS011;61763;51.416;5.442;2023-04-01T23:32:05;14.38;;;7.38;;
73515;SDS011;61763;51.416;5.442;2023-04-01T23:34:39;16.15;;;6.78;;
73515;SDS011;61763;51.416;5.442;2023-04-01T23:37:11;14.15;;;6.45;;
73515;SDS011;61763;51.416;5.442;2023-04-01T23:39:39;16.10;;;6.38;;
73515;SDS011;61763;51.416;5.442;2023-04-01T23:44:41;13.43;;;6.53;;
73515;SDS011;61763;51.416;5.442;2023-04-01T23:47:13;14.95;;;5.97;;
73515;SDS011;61763;51.416;5.442;2023-04-01T23:49:59;14.95;;;6.38;;
73515;SDS011;61763;51.416;5.442;2023-04-01T23:52:35;15.30;;;7.28;;
73515;SDS011;61763;51.416;5.442;2023-04-01T23:57:35;15.07;;;6.57;;
